sensor_id;sensor_type;location;lat;lon;timestamp;temperature;humidity
11778;DHT22;5946;51.770;8.548;2022-09-17T06:54:16;10.20;99.90
11778;DHT22;5946;51.770;8.548;2022-09-17T07:06:26;11.00;99.90
11778;DHT22;5946;51.770;8.548;2022-09-17T07:08:51;11.10;99.90
11778;DHT22;5946;51.770;8.548;2022-09-17T07:11:17;11.20;99.90
11778;DHT22;5946;51.770;8.548;2022-09-17T07:13:42;11.20;99.90
11778;DHT22;5946;51.770;8.548;2022-09-17T07:16:09;11.10;99.90
11778;DHT22;5946;51.770;8.548;2022-09-17T07:18:34;11.00;99.90
11778;DHT22;5946;51.770;8.548;2022-09-17T07:21:03;11.00;99.90
11778;DHT22;5946;51.770;8.548;2022-09-17T07:23:32;10.90;99.90
11778;DHT22;5946;51.770;8.548;2022-09-17T07:26:00;10.80;99.90
11778;DHT22;5946;51.770;8.548;2022-09-17T07:28:27;10.80;99.90
11778;DHT22;5946;51.770;8.548;2022-09-17T07:30:53;10.80;99.90
11778;DHT22;5946;51.770;8.548;2022-09-17T07:33:22;10.90;99.90
11778;DHT22;5946;51.770;8.548;2022-09-17T07:35:56;10.90;99.90
11778;DHT22;5946;51.770;8.548;2022-09-17T07:38:23;10.80;99.90
11778;DHT22;5946;51.770;8.548;2022-09-17T07:40:57;10.80;99.90
11778;DHT22;5946;51.770;8.548;2022-09-17T07:43:24;10.70;99.90
11778;DHT22;5946;51.770;8.548;2022-09-17T07:45:50;10.60;99.90
11778;DHT22;5946;51.770;8.548;2022-09-17T07:48:17;10.50;99.90
11778;DHT22;5946;51.770;8.548;2022-09-17T07:50:42;10.60;99.90
11778;DHT22;5946;51.770;8.548;2022-09-17T07:53:08;10.60;99.90
11778;DHT22;5946;51.770;8.548;2022-09-17T07:55:33;10.70;99.90
11778;DHT22;5946;51.770;8.548;2022-09-17T07:57:59;10.80;99.90
11778;DHT22;5946;51.770;8.548;2022-09-17T08:00:24;10.90;99.90
11778;DHT22;5946;51.770;8.548;2022-09-17T08:02:53;11.00;99.90
11778;DHT22;5946;51.770;8.548;2022-09-17T08:05:19;11.10;99.90
11778;DHT22;5946;51.770;8.548;2022-09-17T08:07:52;11.30;99.90
11778;DHT22;5946;51.770;8.548;2022-09-17T08:10:19;11.40;99.90
11778;DHT22;5946;51.770;8.548;2022-09-17T08:12:49;11.50;99.90
11778;DHT22;5946;51.770;8.548;2022-09-17T08:15:16;11.50;99.90
11778;DHT22;5946;51.770;8.548;2022-09-17T08:17:43;11.50;99.90
11778;DHT22;5946;51.770;8.548;2022-09-17T08:20:09;11.50;99.90
11778;DHT22;5946;51.770;8.548;2022-09-17T08:22:34;11.60;99.90
11778;DHT22;5946;51.770;8.548;2022-09-17T08:25:00;11.70;99.90
11778;DHT22;5946;51.770;8.548;2022-09-17T08:27:26;11.80;99.90
11778;DHT22;5946;51.770;8.548;2022-09-17T08:29:51;11.90;99.90
11778;DHT22;5946;51.770;8.548;2022-09-17T08:32:17;11.90;99.90
11778;DHT22;5946;51.770;8.548;2022-09-17T08:34:42;12.00;99.90
11778;DHT22;5946;51.770;8.548;2022-09-17T08:37:08;12.10;99.90
11778;DHT22;5946;51.770;8.548;2022-09-17T08:39:33;12.10;99.90
11778;DHT22;5946;51.770;8.548;2022-09-17T08:44:42;12.00;99.90
11778;DHT22;5946;51.770;8.548;2022-09-17T08:47:26;12.10;99.90
11778;DHT22;5946;51.770;8.548;2022-09-17T08:49:55;12.10;99.90
11778;DHT22;5946;51.770;8.548;2022-09-17T08:55:27;12.40;99.90
11778;DHT22;5946;51.770;8.548;2022-09-17T09:10:59;12.80;99.90
11778;DHT22;5946;51.770;8.548;2022-09-17T14:16:52;11.90;99.90
11778;DHT22;5946;51.770;8.548;2022-09-17T14:19:32;11.40;99.90
11778;DHT22;5946;51.770;8.548;2022-09-17T14:22:11;10.90;99.90
11778;DHT22;5946;51.770;8.548;2022-09-17T14:24:51;10.60;99.90
11778;DHT22;5946;51.770;8.548;2022-09-17T14:28:09;10.60;99.90
11778;DHT22;5946;51.770;8.548;2022-09-17T14:30:29;10.50;99.90
11778;DHT22;5946;51.770;8.548;2022-09-17T14:33:06;10.50;99.90
11778;DHT22;5946;51.770;8.548;2022-09-17T14:35:40;10.50;99.90
11778;DHT22;5946;51.770;8.548;2022-09-17T14:40:32;10.50;99.90
11778;DHT22;5946;51.770;8.548;2022-09-17T14:42:59;10.60;99.90
11778;DHT22;5946;51.770;8.548;2022-09-17T14:45:36;10.60;99.90
11778;DHT22;5946;51.770;8.548;2022-09-17T14:50:50;11.50;99.90
11778;DHT22;5946;51.770;8.548;2022-09-17T14:53:18;12.10;99.90
11778;DHT22;5946;51.770;8.548;2022-09-17T14:55:46;13.10;99.90
11778;DHT22;5946;51.770;8.548;2022-09-17T14:58:35;14.70;99.90
11778;DHT22;5946;51.770;8.548;2022-09-17T15:01:02;15.20;99.90
11778;DHT22;5946;51.770;8.548;2022-09-17T15:03:27;16.50;99.90
11778;DHT22;5946;51.770;8.548;2022-09-17T15:05:53;17.40;99.90
11778;DHT22;5946;51.770;8.548;2022-09-17T15:08:24;18.90;98.10
11778;DHT22;5946;51.770;8.548;2022-09-17T15:10:59;18.70;96.80
11778;DHT22;5946;51.770;8.548;2022-09-17T15:13:31;18.60;97.70
11778;DHT22;5946;51.770;8.548;2022-09-17T15:18:34;18.60;97.50
11778;DHT22;5946;51.770;8.548;2022-09-17T15:21:02;18.40;97.80
11778;DHT22;5946;51.770;8.548;2022-09-17T15:23:32;18.40;97.90
11778;DHT22;5946;51.770;8.548;2022-09-17T15:25:59;18.80;97.90
11778;DHT22;5946;51.770;8.548;2022-09-17T15:28:35;19.00;97.90
11778;DHT22;5946;51.770;8.548;2022-09-17T15:31:03;19.50;97.30
11778;DHT22;5946;51.770;8.548;2022-09-17T15:33:30;19.20;96.80
11778;DHT22;5946;51.770;8.548;2022-09-17T15:36:23;19.40;97.50
11778;DHT22;5946;51.770;8.548;2022-09-17T15:38:50;19.80;96.50
11778;DHT22;5946;51.770;8.548;2022-09-17T15:43:45;19.40;97.00
11778;DHT22;5946;51.770;8.548;2022-09-17T15:46:29;17.90;99.00
11778;DHT22;5946;51.770;8.548;2022-09-17T15:48:57;16.90;99.90
11778;DHT22;5946;51.770;8.548;2022-09-17T15:51:34;16.30;99.90
11778;DHT22;5946;51.770;8.548;2022-09-17T15:54:02;16.40;99.90
11778;DHT22;5946;51.770;8.548;2022-09-17T15:56:34;15.80;99.90
11778;DHT22;5946;51.770;8.548;2022-09-17T16:04:19;13.80;99.90
11778;DHT22;5946;51.770;8.548;2022-09-17T16:06:57;13.20;99.90
11778;DHT22;5946;51.770;8.548;2022-09-17T16:09:39;12.10;99.90
11778;DHT22;5946;51.770;8.548;2022-09-17T16:12:05;11.30;99.90
11778;DHT22;5946;51.770;8.548;2022-09-17T16:14:31;10.70;99.90
11778;DHT22;5946;51.770;8.548;2022-09-17T16:16:57;10.30;99.90
11778;DHT22;5946;51.770;8.548;2022-09-17T16:19:24;9.70;99.90
11778;DHT22;5946;51.770;8.548;2022-09-17T16:21:49;9.40;99.90
11778;DHT22;5946;51.770;8.548;2022-09-17T16:24:15;9.00;99.90
11778;DHT22;5946;51.770;8.548;2022-09-17T16:26:41;8.90;99.90
11778;DHT22;5946;51.770;8.548;2022-09-17T16:29:11;8.80;99.90
11778;DHT22;5946;51.770;8.548;2022-09-17T16:31:38;8.70;99.90
11778;DHT22;5946;51.770;8.548;2022-09-17T16:34:03;8.80;99.90
11778;DHT22;5946;51.770;8.548;2022-09-17T16:36:29;8.90;99.90
11778;DHT22;5946;51.770;8.548;2022-09-17T16:38:56;8.90;99.90
11778;DHT22;5946;51.770;8.548;2022-09-17T16:41:22;8.80;99.90
11778;DHT22;5946;51.770;8.548;2022-09-17T16:43:47;8.90;99.90
11778;DHT22;5946;51.770;8.548;2022-09-17T16:46:13;8.90;99.90
11778;DHT22;5946;51.770;8.548;2022-09-17T16:48:39;8.90;99.90
11778;DHT22;5946;51.770;8.548;2022-09-17T16:51:14;9.00;99.90
11778;DHT22;5946;51.770;8.548;2022-09-17T16:53:40;9.10;99.90
11778;DHT22;5946;51.770;8.548;2022-09-17T16:56:06;9.20;99.90
11778;DHT22;5946;51.770;8.548;2022-09-17T16:58:32;9.30;99.90
11778;DHT22;5946;51.770;8.548;2022-09-17T17:01:04;9.40;99.90
11778;DHT22;5946;51.770;8.548;2022-09-17T17:03:29;9.50;99.90
11778;DHT22;5946;51.770;8.548;2022-09-17T17:05:55;9.60;99.90
11778;DHT22;5946;51.770;8.548;2022-09-17T17:08:20;9.70;99.90
11778;DHT22;5946;51.770;8.548;2022-09-17T17:10:48;9.60;99.90
11778;DHT22;5946;51.770;8.548;2022-09-17T17:13:14;9.70;99.90
11778;DHT22;5946;51.770;8.548;2022-09-17T17:15:40;9.70;99.90
11778;DHT22;5946;51.770;8.548;2022-09-17T17:18:05;9.70;99.90
11778;DHT22;5946;51.770;8.548;2022-09-17T17:20:34;9.70;99.90
11778;DHT22;5946;51.770;8.548;2022-09-17T17:22:59;9.80;99.90
11778;DHT22;5946;51.770;8.548;2022-09-17T17:25:25;9.80;99.90
11778;DHT22;5946;51.770;8.548;2022-09-17T17:27:51;9.80;99.90
11778;DHT22;5946;51.770;8.548;2022-09-17T17:30:17;9.70;99.90
11778;DHT22;5946;51.770;8.548;2022-09-17T17:32:43;9.70;99.90
11778;DHT22;5946;51.770;8.548;2022-09-17T17:35:09;9.60;99.90
11778;DHT22;5946;51.770;8.548;2022-09-17T17:37:35;9.60;99.90
11778;DHT22;5946;51.770;8.548;2022-09-17T17:40:01;9.70;99.90
11778;DHT22;5946;51.770;8.548;2022-09-17T17:42:30;9.70;99.90
11778;DHT22;5946;51.770;8.548;2022-09-17T17:45:01;9.70;99.90
11778;DHT22;5946;51.770;8.548;2022-09-17T22:01:51;9.50;99.90
11778;DHT22;5946;51.770;8.548;2022-09-17T22:04:19;9.50;99.90
11778;DHT22;5946;51.770;8.548;2022-09-17T22:06:46;9.60;99.90
11778;DHT22;5946;51.770;8.548;2022-09-17T22:09:18;9.50;99.90
11778;DHT22;5946;51.770;8.548;2022-09-17T22:11:44;9.50;99.90
11778;DHT22;5946;51.770;8.548;2022-09-17T22:14:12;9.50;99.90
11778;DHT22;5946;51.770;8.548;2022-09-17T22:16:42;9.50;99.90
11778;DHT22;5946;51.770;8.548;2022-09-17T22:19:10;9.50;99.90
11778;DHT22;5946;51.770;8.548;2022-09-17T22:21:41;9.40;99.90
11778;DHT22;5946;51.770;8.548;2022-09-17T22:24:09;9.40;99.90
11778;DHT22;5946;51.770;8.548;2022-09-17T22:26:37;9.50;99.90
11778;DHT22;5946;51.770;8.548;2022-09-17T22:29:05;9.50;99.90
11778;DHT22;5946;51.770;8.548;2022-09-17T22:31:31;9.40;99.90
11778;DHT22;5946;51.770;8.548;2022-09-17T22:33:57;9.40;99.90
11778;DHT22;5946;51.770;8.548;2022-09-17T22:36:24;9.40;99.90
11778;DHT22;5946;51.770;8.548;2022-09-17T22:38:57;9.40;99.90
11778;DHT22;5946;51.770;8.548;2022-09-17T22:41:28;9.30;99.90
11778;DHT22;5946;51.770;8.548;2022-09-17T22:44:03;9.20;99.90
11778;DHT22;5946;51.770;8.548;2022-09-17T22:49:03;9.20;99.90
11778;DHT22;5946;51.770;8.548;2022-09-17T22:51:29;9.30;99.90
11778;DHT22;5946;51.770;8.548;2022-09-17T22:53:55;9.30;99.90
11778;DHT22;5946;51.770;8.548;2022-09-17T22:56:22;9.30;99.90
11778;DHT22;5946;51.770;8.548;2022-09-17T23:01:17;9.40;99.90
11778;DHT22;5946;51.770;8.548;2022-09-17T23:03:43;9.50;99.90
11778;DHT22;5946;51.770;8.548;2022-09-17T23:06:12;9.50;99.90
11778;DHT22;5946;51.770;8.548;2022-09-17T23:08:38;9.60;99.90
11778;DHT22;5946;51.770;8.548;2022-09-17T23:11:06;9.70;99.90
11778;DHT22;5946;51.770;8.548;2022-09-17T23:13:32;9.70;99.90
11778;DHT22;5946;51.770;8.548;2022-09-17T23:16:03;9.80;99.90
11778;DHT22;5946;51.770;8.548;2022-09-17T23:18:30;9.80;99.90
11778;DHT22;5946;51.770;8.548;2022-09-17T23:21:04;9.80;99.90
11778;DHT22;5946;51.770;8.548;2022-09-17T23:23:34;9.80;99.90
11778;DHT22;5946;51.770;8.548;2022-09-17T23:26:06;9.90;99.90
11778;DHT22;5946;51.770;8.548;2022-09-17T23:28:33;9.90;99.90
11778;DHT22;5946;51.770;8.548;2022-09-17T23:33:32;9.90;99.90
11778;DHT22;5946;51.770;8.548;2022-09-17T23:36:13;9.90;99.90
11778;DHT22;5946;51.770;8.548;2022-09-17T23:38:40;9.90;99.90
11778;DHT22;5946;51.770;8.548;2022-09-17T23:41:15;10.00;99.90
11778;DHT22;5946;51.770;8.548;2022-09-17T23:43:43;9.90;99.90
11778;DHT22;5946;51.770;8.548;2022-09-17T23:46:09;10.00;99.90
11778;DHT22;5946;51.770;8.548;2022-09-17T23:48:35;10.00;99.90
11778;DHT22;5946;51.770;8.548;2022-09-17T23:51:00;9.90;99.90
11778;DHT22;5946;51.770;8.548;2022-09-17T23:53:28;9.90;99.90
11778;DHT22;5946;51.770;8.548;2022-09-17T23:55:54;9.90;99.90
11778;DHT22;5946;51.770;8.548;2022-09-17T23:58:19;9.90;99.90
